Leeco, Kentucky
Current Conditions -  °F | °C
As of 5:53 PM on Tuesday 25 Nov 2014 (Local Time) from KJKL Reporting Station
Clear Clear  
Wind Chill: 44°   Ceiling: Unl
Heat Index: 47°   Visibility: 10mi
Dew Point: 27°   Wind: 6mph
Humidity: 46%   Direction: 10°N
Pressure: 30.08"   Gusts: NA
Location:  37.7524°N, 83.5047°W
Report Text: KJKL 252253Z AUTO 01005KT 10SM CLR 08/M03 A3008 RMK AO2 SLP190 T00831028
Loading
Personal Weather Stations






























Interactive Weather Map New forecast layout! Learn more

10-Day Weather Forecast

Advertisements
Track Severe Weather on mobile